Aérodrome :
LOGIN :

S'inscrire | Disclaimer

   EN    FR    IT 

 










Légende :    VFR   VFR Marginal   IFR   IFR Intensif   IFR Très Intensif
Visi : 
Plafond : 
>= 8 km
>= 3000ft
5 à 8 km
1000 à 3000 ft
1500m à 5 km
500 à 1000 ft
800 à 1500m
200 à 500 ft
< 800m
< 200 ft
Symboles :   Orages  Brouillard  Fortes neiges  Fortes précipitations  Vent > 20 kt
SIGMETs :   Divers  Orages  Givrage  Turbulence  Onde Orograph.  Cendres Volcan.






- Altitude de l'aérodrome : 399 ft
- Code IATA : KIV


LUKK - Chisinau Int.

DERNIER METAR :
  • 290400Z 34005KT 7000 -RA OVC009 03/02 Q1018 R08/290152 TEMPO 3800 BR BKN004

METARs EXPIRÉS :
  • 290330Z 36004KT 8000 OVC010 03/02 Q1018 R08/290152 TEMPO 3800 BR BKN004
  • 290300Z 36004KT 9000 -RA OVC011 03/02 Q1018 R08/D TEMPO 3800 BR BKN004
  • 290230Z 01007KT 9000 -RA SCT006 OVC013 03/02 Q1018 R08/CLRD// BECMG 3800 BR BKN004
  • 290200Z 03005KT 9000 -RA FEW007 OVC013 03/02 Q1018 R08/CLRD// BECMG 3800 BR BKN004
  • 290130Z 02004KT 6000 -RA BKN007 OVC013 03/03 Q1018 R08/D BECMG 3800 BR BKN004

TAF TAF LUKK
Valide du 29 à 00h jusqu'au 30 à 00h UTC


282328Z 2900/2924 VRB05KT 5000 BR OVC007
BECMG 2901/2903 2800 OVC004
TEMPO 2903/2908 0800 RA FG VV///
BECMG 2909/2911 5000 BKN006 BKN015
BECMG 2911/2913 9999 NSW BKN015



MET'MAP, la Météo Aéronautique d'un coup d'oeil ! - Copyright ORBIFLY Décembre 2007 - Disclaimer

ORBIFLY MET'MAP TEAM :

Programmation & Développement : Alexandra Zaïnal
Sur une idée originale de : Baudouin d'Aumeries
Assistance à la programmation : Marc-Olivier Méhu
Soutien technique & logistique : Manuel Goepfert

Contact : metmap@orbifly.com




SOURCES & CREDITS :

   NOAA